Dallas, Georgia
Current Conditions -  °F | °C
As of 3:15 AM on Sunday 21 Dec 2014 (Local Time) from KPUJ Reporting Station
Haze Haze  
Wind Chill: 45°   Ceiling: 1300
Heat Index: 45°   Visibility: 3mi
Dew Point: 45°   Wind: 3mph
Humidity: 100%   Direction: 40°NE
Pressure: 30.18"   Gusts: NA
Location:  33.92°N, 84.83°W
Report Text: KPUJ 210815Z AUTO 04003KT 3SM BR OVC013 07/07 A3018 RMK AO2
Loading
Personal Weather Stations






























Interactive Weather Map New forecast layout! Learn more

10-Day Weather Forecast

Advertisements
Track Severe Weather on mobile